Time;durP1;ratioP1;P1;durP2;ratioP2;P2;SDS_P1;SDS_P2;PMS_P1;PMS_P2;Temp;Humidity;BMP_temperature;BMP_pressure;BME280_temperature;BME280_humidity;BME280_pressure;Samples;Min_cycle;Max_cycle;Signal;HPM_P1;HPM_P2
2023/06/23 00:00:13;;;;;;;2.80;2.58;;;;;;;;;;5031385;28;20655;-85
2023/06/23 00:02:41;;;;;;;3.30;3.00;;;;;;;;;;5032159;28;20211;-82
2023/06/23 00:05:09;;;;;;;4.20;3.40;;;;;;;;;;5033718;28;20242;-82
2023/06/23 00:07:36;;;;;;;3.20;3.00;;;;;;;;;;5048895;28;22117;-84
2023/06/23 00:10:05;;;;;;;3.80;3.22;;;;;;;;;;5040060;28;20237;-82
2023/06/23 00:12:33;;;;;;;3.25;2.95;;;;;;;;;;5032785;28;20207;-82
2023/06/23 00:15:00;;;;;;;5.53;3.42;;;;;;;;;;5031457;28;20262;-84
2023/06/23 00:17:27;;;;;;;4.55;3.17;;;;;;;;;;5036391;28;20210;-82
2023/06/23 00:19:56;;;;;;;3.53;3.17;;;;;;;;;;5031265;28;20234;-82
2023/06/23 00:22:23;;;;;;;3.90;3.60;;;;;;;;;;5032509;28;20204;-83
2023/06/23 00:24:50;;;;;;;3.97;3.45;;;;;;;;;;5051206;28;20249;-83
2023/06/23 00:27:17;;;;;;;4.57;3.60;;;;;;;;;;5035515;28;20207;-83
2023/06/23 00:29:44;;;;;;;4.20;3.80;;;;;;;;;;5050816;28;20244;-83
2023/06/23 00:32:11;;;;;;;4.43;3.80;;;;;;;;;;5051486;28;20206;-81
2023/06/23 00:34:38;;;;;;;4.45;4.05;;;;;;;;;;5038427;28;20237;-82
2023/06/23 00:37:08;;;;;;;4.25;3.85;;;;;;;;;;5031387;28;20203;-83
2023/06/23 00:39:35;;;;;;;4.57;3.92;;;;;;;;;;5031336;28;20234;-83
2023/06/23 00:42:03;;;;;;;5.25;3.95;;;;;;;;;;5031877;28;20211;-82
2023/06/23 00:44:30;;;;;;;5.13;3.53;;;;;;;;;;5030991;28;20242;-83
2023/06/23 00:46:57;;;;;;;4.40;3.97;;;;;;;;;;5030958;28;20225;-83
2023/06/23 00:49:24;;;;;;;4.32;3.92;;;;;;;;;;5031259;28;20234;-83
2023/06/23 00:51:52;;;;;;;3.85;3.53;;;;;;;;;;5031556;28;20210;-83
2023/06/23 00:54:23;;;;;;;4.95;3.80;;;;;;;;;;5030698;28;20735;-82
2023/06/23 00:56:50;;;;;;;4.47;4.07;;;;;;;;;;5030820;28;20211;-83
2023/06/23 00:59:17;;;;;;;4.82;3.47;;;;;;;;;;5030996;28;20234;-83
2023/06/23 01:01:45;;;;;;;5.75;4.35;;;;;;;;;;5032070;28;20249;-84
2023/06/23 01:04:12;;;;;;;5.13;4.03;;;;;;;;;;5029716;28;20226;-82
2023/06/23 01:06:46;;;;;;;4.50;4.10;;;;;;;;;;5033050;28;20229;-82
2023/06/23 01:09:17;;;;;;;5.15;4.10;;;;;;;;;;5034673;28;20602;-82
2023/06/23 01:11:54;;;;;;;4.88;4.38;;;;;;;;;;5016050;28;20294;-86
2023/06/23 01:14:24;;;;;;;6.50;4.50;;;;;;;;;;5015285;28;20705;-84
2023/06/23 01:16:55;;;;;;;6.28;4.32;;;;;;;;;;5014823;28;20215;-82
2023/06/23 01:19:29;;;;;;;5.13;4.63;;;;;;;;;;5031960;28;20931;-83
2023/06/23 01:22:02;;;;;;;4.32;3.92;;;;;;;;;;5048302;28;20191;-81
2023/06/23 01:24:35;;;;;;;5.93;4.47;;;;;;;;;;5034475;28;20241;-82
2023/06/23 01:27:18;;;;;;;6.20;4.18;;;;;;;;;;5035230;28;20187;-83
2023/06/23 01:29:48;;;;;;;4.72;3.92;;;;;;;;;;5049657;28;20287;-81
2023/06/23 01:32:17;;;;;;;5.20;3.78;;;;;;;;;;5039880;28;20199;-83
2023/06/23 01:34:46;;;;;;;4.60;3.95;;;;;;;;;;5033950;28;20285;-82
2023/06/23 01:37:14;;;;;;;5.93;4.00;;;;;;;;;;5035621;28;20238;-82
2023/06/23 01:39:43;;;;;;;4.25;3.85;;;;;;;;;;5049660;28;20226;-85
2023/06/23 01:42:12;;;;;;;6.35;4.30;;;;;;;;;;5035182;28;20210;-82
2023/06/23 01:44:40;;;;;;;6.45;4.18;;;;;;;;;;5041569;28;20238;-82
2023/06/23 01:47:11;;;;;;;4.85;4.32;;;;;;;;;;5034837;28;20733;-82
2023/06/23 01:49:38;;;;;;;4.05;3.65;;;;;;;;;;5053830;28;20253;-84
2023/06/23 01:52:07;;;;;;;4.68;4.20;;;;;;;;;;5054351;28;20229;-80
2023/06/23 01:54:35;;;;;;;5.18;3.95;;;;;;;;;;5053537;28;20234;-82
2023/06/23 01:57:03;;;;;;;4.45;3.90;;;;;;;;;;5054007;28;20206;-82
2023/06/23 01:59:30;;;;;;;4.57;4.18;;;;;;;;;;5035941;28;20230;-82
2023/06/23 02:01:58;;;;;;;4.90;3.60;;;;;;;;;;5034443;28;20211;-82
2023/06/23 02:04:27;;;;;;;6.10;3.88;;;;;;;;;;5033600;28;20242;-82
2023/06/23 02:06:55;;;;;;;4.90;3.88;;;;;;;;;;5034151;28;20210;-85
2023/06/23 02:09:24;;;;;;;5.22;3.65;;;;;;;;;;5041328;28;20230;-81
2023/06/23 02:11:55;;;;;;;4.47;4.07;;;;;;;;;;5052896;28;20210;-83
2023/06/23 02:14:23;;;;;;;4.18;3.72;;;;;;;;;;5044680;28;20253;-80
2023/06/23 02:16:50;;;;;;;4.03;3.63;;;;;;;;;;5038248;28;20791;-83
2023/06/23 02:19:19;;;;;;;4.22;3.78;;;;;;;;;;5053265;28;20237;-80
2023/06/23 02:21:48;;;;;;;5.10;4.03;;;;;;;;;;5053722;28;20210;-81
2023/06/23 02:24:16;;;;;;;4.82;4.32;;;;;;;;;;5051473;28;20238;-80
2023/06/23 02:26:44;;;;;;;5.78;4.13;;;;;;;;;;5043415;28;20576;-81
2023/06/23 02:29:12;;;;;;;4.80;3.97;;;;;;;;;;5033367;28;20227;-80
2023/06/23 02:31:39;;;;;;;5.40;4.90;;;;;;;;;;5038191;28;20202;-81
2023/06/23 02:34:06;;;;;;;5.45;4.15;;;;;;;;;;5032849;28;20288;-81
2023/06/23 02:36:37;;;;;;;6.35;4.40;;;;;;;;;;5052922;28;20222;-82
2023/06/23 02:39:07;;;;;;;4.80;4.35;;;;;;;;;;5052842;28;20226;-81
2023/06/23 02:41:36;;;;;;;4.60;4.00;;;;;;;;;;5053268;28;20213;-80
2023/06/23 02:44:04;;;;;;;5.03;3.83;;;;;;;;;;5053545;28;20230;-81
2023/06/23 02:46:34;;;;;;;4.80;4.30;;;;;;;;;;5052956;28;20210;-81
2023/06/23 02:49:08;;;;;;;5.18;4.45;;;;;;;;;;5052936;28;20641;-81
2023/06/23 02:51:37;;;;;;;6.07;4.20;;;;;;;;;;5053098;28;20193;-81
2023/06/23 02:54:06;;;;;;;4.55;4.15;;;;;;;;;;5044516;28;20292;-81
2023/06/23 02:56:34;;;;;;;5.40;4.03;;;;;;;;;;5033689;28;20211;-81
2023/06/23 02:59:02;;;;;;;4.35;3.95;;;;;;;;;;5032985;28;20227;-80
2023/06/23 03:01:31;;;;;;;5.20;4.20;;;;;;;;;;5036783;28;20205;-81
2023/06/23 03:03:58;;;;;;;4.55;3.97;;;;;;;;;;5051387;28;20261;-80
2023/06/23 03:06:25;;;;;;;4.85;4.00;;;;;;;;;;5053140;28;20210;-80
2023/06/23 03:08:54;;;;;;;4.72;3.83;;;;;;;;;;5052392;28;20229;-80
2023/06/23 03:11:22;;;;;;;4.35;3.95;;;;;;;;;;5052605;28;20564;-80
2023/06/23 03:13:49;;;;;;;5.55;4.40;;;;;;;;;;5051427;28;20237;-81
2023/06/23 03:16:33;;;;;;;5.93;4.05;;;;;;;;;;5053308;28;20209;-81
2023/06/23 03:19:05;;;;;;;4.13;3.72;;;;;;;;;;5036584;28;20610;-81
2023/06/23 03:21:32;;;;;;;4.32;3.92;;;;;;;;;;5033096;28;20306;-81
2023/06/23 03:24:01;;;;;;;4.68;4.28;;;;;;;;;;5046001;28;20242;-81
2023/06/23 03:26:30;;;;;;;5.20;4.10;;;;;;;;;;5052718;28;20206;-82
2023/06/23 03:28:58;;;;;;;4.78;3.72;;;;;;;;;;5051521;28;20589;-81
2023/06/23 03:31:25;;;;;;;4.43;3.90;;;;;;;;;;5042736;28;20206;-81
2023/06/23 03:33:53;;;;;;;5.80;4.40;;;;;;;;;;5045160;28;20240;-82
2023/06/23 03:36:22;;;;;;;4.35;3.95;;;;;;;;;;5052600;28;20217;-81
2023/06/23 03:38:54;;;;;;;4.22;3.83;;;;;;;;;;5051908;28;20237;-81
2023/06/23 03:41:21;;;;;;;4.22;3.83;;;;;;;;;;5052198;28;20597;-82
2023/06/23 03:43:52;;;;;;;4.65;4.25;;;;;;;;;;5007965;28;20231;-83
2023/06/23 03:46:20;;;;;;;4.30;3.90;;;;;;;;;;5013421;28;20526;-82
2023/06/23 03:48:48;;;;;;;4.85;4.32;;;;;;;;;;5031581;28;20234;-82
2023/06/23 03:51:18;;;;;;;4.97;4.28;;;;;;;;;;5034300;28;20187;-85
2023/06/23 03:53:45;;;;;;;4.95;4.35;;;;;;;;;;5031361;28;20238;-82
2023/06/23 03:56:14;;;;;;;5.35;4.85;;;;;;;;;;5031802;28;20210;-82
2023/06/23 03:58:42;;;;;;;4.82;4.25;;;;;;;;;;5033153;28;20241;-81
2023/06/23 04:01:11;;;;;;;5.05;4.47;;;;;;;;;;5041923;28;20738;-81
2023/06/23 04:03:39;;;;;;;5.18;4.43;;;;;;;;;;5046546;28;20709;-81
2023/06/23 04:06:07;;;;;;;7.45;4.70;;;;;;;;;;5032896;28;20677;-81
2023/06/23 04:08:36;;;;;;;4.95;4.45;;;;;;;;;;5026884;28;20235;-82
2023/06/23 04:11:03;;;;;;;5.75;4.68;;;;;;;;;;5032517;28;20696;-84
2023/06/23 04:13:31;;;;;;;5.20;4.40;;;;;;;;;;5031069;28;20253;-81
2023/06/23 04:15:58;;;;;;;5.53;4.50;;;;;;;;;;5031646;28;20213;-80
2023/06/23 04:18:28;;;;;;;6.90;4.55;;;;;;;;;;5031346;28;20206;-81
2023/06/23 04:20:55;;;;;;;5.22;4.72;;;;;;;;;;5032426;28;20293;-82
2023/06/23 04:23:23;;;;;;;5.25;4.63;;;;;;;;;;5031330;28;20229;-81
2023/06/23 04:25:51;;;;;;;5.25;4.20;;;;;;;;;;5035340;28;20203;-81
2023/06/23 04:28:22;;;;;;;4.97;4.47;;;;;;;;;;5030832;28;20213;-81
2023/06/23 04:30:49;;;;;;;6.80;4.88;;;;;;;;;;5031328;28;20206;-81
2023/06/23 04:33:16;;;;;;;4.40;4.00;;;;;;;;;;5031885;28;20226;-82
2023/06/23 04:35:46;;;;;;;5.03;4.22;;;;;;;;;;5031307;28;20288;-81
2023/06/23 04:38:14;;;;;;;8.70;4.60;;;;;;;;;;5031236;28;20213;-81
2023/06/23 04:40:42;;;;;;;7.20;4.38;;;;;;;;;;5034795;28;20226;-80
2023/06/23 04:43:12;;;;;;;4.75;4.28;;;;;;;;;;5036129;28;20210;-83
2023/06/23 04:45:42;;;;;;;5.72;5.13;;;;;;;;;;5035849;28;20226;-84
2023/06/23 04:48:11;;;;;;;4.88;4.38;;;;;;;;;;5037525;28;20558;-88
2023/06/23 04:50:39;;;;;;;5.50;4.90;;;;;;;;;;5036590;28;20228;-88
2023/06/23 04:53:12;;;;;;;4.88;4.43;;;;;;;;;;5036322;28;20237;-84
2023/06/23 04:55:41;;;;;;;4.57;4.10;;;;;;;;;;5036534;28;20231;-84
2023/06/23 04:58:09;;;;;;;4.90;3.67;;;;;;;;;;5037757;28;20206;-82
2023/06/23 05:00:37;;;;;;;4.40;4.00;;;;;;;;;;5027063;28;20226;-83
2023/06/23 05:03:05;;;;;;;5.80;4.05;;;;;;;;;;5035548;28;20239;-84
2023/06/23 05:05:33;;;;;;;5.38;4.13;;;;;;;;;;5034821;28;20241;-83
2023/06/23 05:08:00;;;;;;;3.95;3.55;;;;;;;;;;5035074;28;20214;-83
2023/06/23 05:10:30;;;;;;;5.22;4.07;;;;;;;;;;5034694;28;20243;-83
2023/06/23 05:12:58;;;;;;;4.28;3.67;;;;;;;;;;5034698;28;20294;-83
2023/06/23 05:15:27;;;;;;;3.72;3.42;;;;;;;;;;5046516;28;20300;-83
2023/06/23 05:17:56;;;;;;;4.28;3.85;;;;;;;;;;5048684;28;20210;-87
2023/06/23 05:20:25;;;;;;;4.07;3.55;;;;;;;;;;5054726;28;20236;-81
2023/06/23 05:22:53;;;;;;;4.05;3.33;;;;;;;;;;5055678;28;20626;-82
2023/06/23 05:25:23;;;;;;;4.93;3.40;;;;;;;;;;5054675;28;20242;-82
2023/06/23 05:27:57;;;;;;;3.67;3.38;;;;;;;;;;5054563;28;20639;-82
2023/06/23 05:30:24;;;;;;;3.50;3.20;;;;;;;;;;5055038;28;20225;-82
2023/06/23 05:32:52;;;;;;;4.38;3.20;;;;;;;;;;5054730;28;20206;-82
2023/06/23 05:35:19;;;;;;;3.53;3.22;;;;;;;;;;5054148;28;20242;-82
2023/06/23 05:37:48;;;;;;;3.33;3.08;;;;;;;;;;5054390;28;20688;-81
2023/06/23 05:40:16;;;;;;;3.40;3.10;;;;;;;;;;5054167;28;20245;-82
2023/06/23 05:42:43;;;;;;;5.80;3.25;;;;;;;;;;5054955;28;20629;-81
2023/06/23 05:45:12;;;;;;;6.85;3.78;;;;;;;;;;5053832;28;20244;-83
2023/06/23 05:47:43;;;;;;;3.40;3.10;;;;;;;;;;5039894;28;20214;-81
2023/06/23 05:50:14;;;;;;;3.72;3.08;;;;;;;;;;5035355;28;20238;-83
2023/06/23 05:52:46;;;;;;;4.03;3.47;;;;;;;;;;5033834;28;20214;-83
2023/06/23 05:55:13;;;;;;;6.20;3.70;;;;;;;;;;5033512;28;20226;-83
2023/06/23 05:57:41;;;;;;;3.38;3.08;;;;;;;;;;5033665;28;20203;-82
2023/06/23 06:00:10;;;;;;;4.70;3.42;;;;;;;;;;5028223;28;20709;-83
2023/06/23 06:02:40;;;;;;;4.97;3.60;;;;;;;;;;5035769;28;20213;-83
2023/06/23 06:05:10;;;;;;;5.10;3.42;;;;;;;;;;5039650;28;20234;-82
2023/06/23 06:07:37;;;;;;;4.57;3.22;;;;;;;;;;5035088;28;20291;-85
2023/06/23 06:10:06;;;;;;;7.38;3.70;;;;;;;;;;5046263;28;20233;-83
2023/06/23 06:12:35;;;;;;;3.58;3.20;;;;;;;;;;5046346;28;20304;-82
2023/06/23 06:15:02;;;;;;;4.25;3.83;;;;;;;;;;5040961;28;20230;-83
2023/06/23 06:17:31;;;;;;;4.07;3.03;;;;;;;;;;5042189;28;20267;-83
2023/06/23 06:20:00;;;;;;;3.83;3.53;;;;;;;;;;5031006;28;20234;-83
2023/06/23 06:22:28;;;;;;;3.70;3.40;;;;;;;;;;5053353;28;20253;-83
2023/06/23 06:24:56;;;;;;;4.43;3.47;;;;;;;;;;5049911;28;20293;-82
2023/06/23 06:27:24;;;;;;;4.78;3.70;;;;;;;;;;5034163;28;20218;-83
2023/06/23 06:29:52;;;;;;;4.78;4.30;;;;;;;;;;5032829;28;20245;-83
2023/06/23 06:32:19;;;;;;;3.90;3.42;;;;;;;;;;5039857;28;20202;-82
2023/06/23 06:34:47;;;;;;;4.07;3.67;;;;;;;;;;5043410;28;20247;-83
2023/06/23 06:37:16;;;;;;;4.32;3.92;;;;;;;;;;5038852;28;20202;-83
2023/06/23 06:39:44;;;;;;;6.13;3.97;;;;;;;;;;5037606;28;20230;-82
2023/06/23 06:42:11;;;;;;;5.43;4.22;;;;;;;;;;5033264;28;20219;-83
2023/06/23 06:44:39;;;;;;;4.05;3.65;;;;;;;;;;5040571;28;20676;-83
2023/06/23 06:47:08;;;;;;;4.95;3.70;;;;;;;;;;5045705;28;20209;-82
2023/06/23 06:49:35;;;;;;;4.72;4.07;;;;;;;;;;5048752;28;20257;-82
2023/06/23 06:52:03;;;;;;;4.15;3.70;;;;;;;;;;5045786;28;20214;-83
2023/06/23 06:54:31;;;;;;;4.90;4.10;;;;;;;;;;5032235;28;20234;-83
2023/06/23 06:56:59;;;;;;;6.43;4.05;;;;;;;;;;5025135;28;20215;-82
2023/06/23 06:59:26;;;;;;;4.75;3.75;;;;;;;;;;5037462;28;20246;-82
2023/06/23 07:01:54;;;;;;;4.85;3.40;;;;;;;;;;5039901;28;20237;-83
2023/06/23 07:04:21;;;;;;;4.80;3.90;;;;;;;;;;5032634;28;20588;-83
2023/06/23 07:06:52;;;;;;;4.20;3.55;;;;;;;;;;5040882;28;20214;-83
2023/06/23 07:09:20;;;;;;;4.32;3.92;;;;;;;;;;5027976;28;20295;-84
2023/06/23 07:11:50;;;;;;;4.28;3.83;;;;;;;;;;5042478;28;20210;-85
2023/06/23 07:14:18;;;;;;;4.43;3.85;;;;;;;;;;5042261;28;20234;-85
2023/06/23 07:16:45;;;;;;;5.57;3.83;;;;;;;;;;5044289;28;20217;-85
2023/06/23 07:19:12;;;;;;;4.63;4.15;;;;;;;;;;5039804;28;20700;-84
2023/06/23 07:21:40;;;;;;;4.68;4.05;;;;;;;;;;5042634;28;20577;-85
2023/06/23 07:24:07;;;;;;;4.85;4.10;;;;;;;;;;5038266;28;20234;-85
2023/06/23 07:26:37;;;;;;;8.50;4.47;;;;;;;;;;5044314;28;20210;-88
2023/06/23 07:29:05;;;;;;;5.95;4.22;;;;;;;;;;5033109;28;20233;-84
2023/06/23 07:31:33;;;;;;;4.50;4.07;;;;;;;;;;5034879;28;20206;-84
2023/06/23 07:34:00;;;;;;;5.97;4.07;;;;;;;;;;5019134;28;20269;-83
2023/06/23 07:36:27;;;;;;;5.03;4.10;;;;;;;;;;5052149;28;20715;-83
2023/06/23 07:38:54;;;;;;;3.83;3.42;;;;;;;;;;5041558;28;20233;-84
2023/06/23 07:41:21;;;;;;;4.75;4.10;;;;;;;;;;5035888;28;20226;-83
2023/06/23 07:43:48;;;;;;;4.25;3.85;;;;;;;;;;5041338;28;20655;-82
2023/06/23 07:46:16;;;;;;;5.28;3.58;;;;;;;;;;5047007;28;20206;-84
2023/06/23 07:48:43;;;;;;;4.55;3.58;;;;;;;;;;5048452;28;20602;-83
2023/06/23 07:51:11;;;;;;;4.13;3.67;;;;;;;;;;5045504;28;20621;-87
2023/06/23 07:53:38;;;;;;;6.57;4.38;;;;;;;;;;5039837;28;20237;-86
2023/06/23 07:56:05;;;;;;;6.80;4.30;;;;;;;;;;5033079;28;20207;-83
2023/06/23 07:58:32;;;;;;;5.50;4.03;;;;;;;;;;5039857;28;20202;-82
2023/06/23 08:00:59;;;;;;;4.28;3.78;;;;;;;;;;5043005;28;20230;-81
2023/06/23 08:03:28;;;;;;;4.10;3.65;;;;;;;;;;5047916;28;20237;-83
2023/06/23 08:05:55;;;;;;;7.78;4.40;;;;;;;;;;5030784;28;20206;-81
2023/06/23 08:08:22;;;;;;;5.63;4.05;;;;;;;;;;5038678;28;20672;-83
2023/06/23 08:10:49;;;;;;;4.75;4.13;;;;;;;;;;5040300;28;20556;-83
2023/06/23 08:13:16;;;;;;;4.68;4.28;;;;;;;;;;5030743;28;20226;-82
2023/06/23 08:15:43;;;;;;;4.68;4.20;;;;;;;;;;5041042;28;20285;-82
2023/06/23 08:18:10;;;;;;;4.82;4.32;;;;;;;;;;5036075;28;20231;-82
2023/06/23 08:20:39;;;;;;;4.57;4.18;;;;;;;;;;5030628;28;20617;-83
2023/06/23 08:23:06;;;;;;;6.90;4.13;;;;;;;;;;5042619;28;20226;-82
2023/06/23 08:25:33;;;;;;;6.38;4.18;;;;;;;;;;5034686;28;20260;-82
2023/06/23 08:28:00;;;;;;;4.50;3.80;;;;;;;;;;5033909;28;20910;-82
2023/06/23 08:30:28;;;;;;;4.25;3.88;;;;;;;;;;5042429;28;20229;-82
2023/06/23 08:32:56;;;;;;;6.18;3.95;;;;;;;;;;5034521;28;20213;-82
2023/06/23 08:35:23;;;;;;;4.35;3.63;;;;;;;;;;5036018;28;20611;-84
2023/06/23 08:37:51;;;;;;;7.57;4.25;;;;;;;;;;5030775;28;20206;-84
2023/06/23 08:40:18;;;;;;;7.13;4.20;;;;;;;;;;5030456;28;20612;-83
2023/06/23 08:42:45;;;;;;;6.40;4.75;;;;;;;;;;5047536;28;20734;-82
2023/06/23 08:45:13;;;;;;;5.38;4.28;;;;;;;;;;5035135;28;20236;-82
2023/06/23 08:47:43;;;;;;;6.38;4.85;;;;;;;;;;5042490;28;20625;-82
2023/06/23 08:50:10;;;;;;;12.25;4.68;;;;;;;;;;5037637;28;20237;-86
2023/06/23 08:52:37;;;;;;;4.88;4.00;;;;;;;;;;5039192;28;20206;-83
2023/06/23 08:55:08;;;;;;;4.55;4.00;;;;;;;;;;5022109;28;20296;-83
2023/06/23 08:57:37;;;;;;;6.18;4.38;;;;;;;;;;5030954;28;20217;-84
2023/06/23 09:00:04;;;;;;;6.32;4.78;;;;;;;;;;5041850;28;20230;-81
2023/06/23 09:02:31;;;;;;;5.85;4.28;;;;;;;;;;5042559;28;20226;-82
2023/06/23 09:04:58;;;;;;;6.40;4.32;;;;;;;;;;5034357;28;20242;-82
2023/06/23 09:07:26;;;;;;;4.57;4.18;;;;;;;;;;5050622;28;20206;-82
2023/06/23 09:09:54;;;;;;;7.20;4.15;;;;;;;;;;5037065;28;20231;-82
2023/06/23 09:12:24;;;;;;;8.00;4.88;;;;;;;;;;5042655;28;20202;-82
2023/06/23 09:14:51;;;;;;;8.73;4.35;;;;;;;;;;5031882;28;20234;-82
2023/06/23 09:17:19;;;;;;;4.85;3.95;;;;;;;;;;5038489;28;20211;-82
2023/06/23 09:19:49;;;;;;;4.78;4.38;;;;;;;;;;5042802;28;20713;-81
2023/06/23 09:22:18;;;;;;;5.68;4.00;;;;;;;;;;5045579;28;20226;-81
2023/06/23 09:24:46;;;;;;;5.78;4.20;;;;;;;;;;5030068;28;20265;-82
2023/06/23 09:27:13;;;;;;;5.35;3.85;;;;;;;;;;5042592;28;20234;-82
2023/06/23 09:29:42;;;;;;;7.57;4.20;;;;;;;;;;5038911;28;20234;-82
2023/06/23 09:32:09;;;;;;;4.68;4.22;;;;;;;;;;5026373;28;20768;-82
2023/06/23 09:34:37;;;;;;;8.35;4.55;;;;;;;;;;5049633;28;20284;-82
2023/06/23 09:37:08;;;;;;;4.75;4.25;;;;;;;;;;5042280;28;20669;-82
2023/06/23 09:39:36;;;;;;;4.97;4.15;;;;;;;;;;5039512;28;20234;-82
2023/06/23 09:42:06;;;;;;;5.97;4.30;;;;;;;;;;5043419;28;20755;-82
2023/06/23 09:44:33;;;;;;;5.47;4.15;;;;;;;;;;5038263;28;20243;-83
2023/06/23 09:47:02;;;;;;;4.93;4.50;;;;;;;;;;5052423;28;20208;-83
2023/06/23 09:49:29;;;;;;;6.03;3.97;;;;;;;;;;5044698;28;20663;-82
2023/06/23 09:51:56;;;;;;;6.50;4.43;;;;;;;;;;5044120;28;20675;-83
2023/06/23 09:54:34;;;;;;;6.47;4.38;;;;;;;;;;5047408;28;20238;-83
2023/06/23 09:57:06;;;;;;;6.50;4.07;;;;;;;;;;5044144;28;20703;-83
2023/06/23 09:59:33;;;;;;;5.80;4.60;;;;;;;;;;5035436;28;20281;-84
2023/06/23 10:02:00;;;;;;;5.07;3.53;;;;;;;;;;5043815;28;20475;-83
2023/06/23 10:04:32;;;;;;;4.80;4.25;;;;;;;;;;5047233;28;20258;-83
2023/06/23 10:06:59;;;;;;;4.25;3.85;;;;;;;;;;5041497;28;20229;-83
2023/06/23 10:09:27;;;;;;;4.30;3.90;;;;;;;;;;5033075;28;20242;-82
2023/06/23 10:11:54;;;;;;;4.82;4.15;;;;;;;;;;5033026;28;20206;-82
2023/06/23 10:14:21;;;;;;;4.38;3.78;;;;;;;;;;5032508;28;20246;-81
2023/06/23 10:16:53;;;;;;;5.05;3.95;;;;;;;;;;5032338;28;20338;-81
2023/06/23 10:19:20;;;;;;;4.57;3.90;;;;;;;;;;5032566;28;20652;-82
2023/06/23 10:21:49;;;;;;;4.53;4.07;;;;;;;;;;5033211;28;20226;-81
2023/06/23 10:24:18;;;;;;;4.03;3.60;;;;;;;;;;5039539;28;20238;-81
2023/06/23 10:26:47;;;;;;;4.70;3.88;;;;;;;;;;5032345;28;20203;-81
2023/06/23 10:29:15;;;;;;;4.70;3.97;;;;;;;;;;5040792;28;20417;-82
2023/06/23 10:31:42;;;;;;;4.63;3.50;;;;;;;;;;5032905;28;20214;-83
2023/06/23 10:34:12;;;;;;;6.05;4.15;;;;;;;;;;5038858;28;20268;-82
2023/06/23 10:36:40;;;;;;;5.05;3.65;;;;;;;;;;5044573;28;20221;-82
2023/06/23 10:39:10;;;;;;;4.35;3.95;;;;;;;;;;5044162;28;20229;-84
2023/06/23 10:41:39;;;;;;;4.40;4.00;;;;;;;;;;5032352;28;20218;-83
2023/06/23 10:44:06;;;;;;;4.25;3.58;;;;;;;;;;5039950;28;20234;-82
2023/06/23 10:46:33;;;;;;;5.68;4.15;;;;;;;;;;5036355;28;20203;-82
2023/06/23 10:49:01;;;;;;;4.05;3.65;;;;;;;;;;5040191;28;20234;-82
2023/06/23 10:51:28;;;;;;;8.52;4.75;;;;;;;;;;5036478;28;20696;-82
2023/06/23 10:53:58;;;;;;;4.45;3.40;;;;;;;;;;5041237;28;20242;-83
2023/06/23 10:56:32;;;;;;;4.00;3.60;;;;;;;;;;5046950;28;20210;-82
2023/06/23 10:58:59;;;;;;;5.30;3.67;;;;;;;;;;5031670;28;20230;-83
2023/06/23 11:01:27;;;;;;;7.53;4.13;;;;;;;;;;5032447;28;20218;-83
2023/06/23 11:03:54;;;;;;;4.25;3.80;;;;;;;;;;5049284;28;20237;-82
2023/06/23 11:06:27;;;;;;;4.57;3.20;;;;;;;;;;5052311;28;20202;-82
2023/06/23 11:08:54;;;;;;;5.35;3.75;;;;;;;;;;5042757;28;20230;-82
2023/06/23 11:11:32;;;;;;;4.85;3.90;;;;;;;;;;5037921;28;20692;-82
2023/06/23 11:13:59;;;;;;;4.38;3.88;;;;;;;;;;5041561;28;20711;-82
2023/06/23 11:16:28;;;;;;;4.25;3.85;;;;;;;;;;5038212;28;20211;-82
2023/06/23 11:18:57;;;;;;;4.18;3.63;;;;;;;;;;5040612;28;20252;-82
2023/06/23 11:21:30;;;;;;;6.38;4.43;;;;;;;;;;5045163;28;20610;-82
2023/06/23 11:24:21;;;;;;;4.10;3.42;;;;;;;;;;5032789;28;20241;-82
2023/06/23 11:26:55;;;;;;;62.78;7.70;;;;;;;;;;5023366;28;20210;-83
2023/06/23 11:29:23;;;;;;;3.38;3.08;;;;;;;;;;5030868;28;20258;-83
2023/06/23 11:32:03;;;;;;;3.35;3.05;;;;;;;;;;5047446;28;20217;-82
2023/06/23 11:34:31;;;;;;;12.50;3.85;;;;;;;;;;5042946;28;20266;-83
2023/06/23 11:37:00;;;;;;;3.63;3.25;;;;;;;;;;5051216;28;20212;-83
2023/06/23 11:39:27;;;;;;;4.25;3.35;;;;;;;;;;5042825;28;20238;-82
2023/06/23 11:41:57;;;;;;;4.03;3.50;;;;;;;;;;5034388;28;20241;-82
2023/06/23 11:44:24;;;;;;;7.13;3.55;;;;;;;;;;5036038;28;20248;-82
2023/06/23 11:46:52;;;;;;;4.53;3.47;;;;;;;;;;5050471;28;20225;-82
2023/06/23 11:49:19;;;;;;;4.35;3.80;;;;;;;;;;5038820;28;20238;-82
2023/06/23 11:51:47;;;;;;;3.72;3.08;;;;;;;;;;5031091;28;20284;-83
2023/06/23 11:54:14;;;;;;;5.13;3.40;;;;;;;;;;5034215;28;20321;-82
2023/06/23 11:56:42;;;;;;;4.97;3.67;;;;;;;;;;5030685;28;20226;-82
2023/06/23 11:59:11;;;;;;;5.00;3.60;;;;;;;;;;5041884;28;20769;-82
2023/06/23 12:01:38;;;;;;;4.47;3.70;;;;;;;;;;5044355;28;20281;-82
2023/06/23 12:04:05;;;;;;;3.50;3.20;;;;;;;;;;5034614;28;20225;-82
2023/06/23 12:06:35;;;;;;;5.93;3.10;;;;;;;;;;5031156;28;20221;-82
2023/06/23 12:09:03;;;;;;;3.55;3.25;;;;;;;;;;5032633;28;20242;-82
2023/06/23 12:11:30;;;;;;;5.22;4.10;;;;;;;;;;5040046;28;20222;-79
2023/06/23 12:13:58;;;;;;;3.75;3.45;;;;;;;;;;5038949;28;20242;-80
2023/06/23 12:16:27;;;;;;;4.20;3.25;;;;;;;;;;5036004;28;20229;-80
2023/06/23 12:18:54;;;;;;;3.95;3.53;;;;;;;;;;5033615;28;20249;-80
2023/06/23 12:21:22;;;;;;;4.78;3.38;;;;;;;;;;5046622;28;20218;-78
2023/06/23 12:23:49;;;;;;;4.65;3.33;;;;;;;;;;5046888;28;20237;-79
2023/06/23 12:26:19;;;;;;;3.75;3.28;;;;;;;;;;5042217;28;20206;-78
2023/06/23 12:28:46;;;;;;;3.63;3.33;;;;;;;;;;5034526;28;20231;-78
2023/06/23 12:31:13;;;;;;;3.90;3.60;;;;;;;;;;5039004;28;20206;-78
2023/06/23 12:33:42;;;;;;;7.47;3.90;;;;;;;;;;5044410;28;20239;-78
2023/06/23 12:36:09;;;;;;;6.45;4.20;;;;;;;;;;5034174;28;20290;-83
2023/06/23 12:38:37;;;;;;;5.68;3.70;;;;;;;;;;5035440;28;20234;-82
2023/06/23 12:41:17;;;;;;;5.15;3.50;;;;;;;;;;5030636;28;20213;-81
2023/06/23 12:43:44;;;;;;;4.60;3.35;;;;;;;;;;5045586;28;20232;-82
2023/06/23 12:46:12;;;;;;;6.38;3.72;;;;;;;;;;5039399;28;20233;-82
2023/06/23 12:48:39;;;;;;;4.70;3.42;;;;;;;;;;5045246;28;20230;-82
2023/06/23 12:51:08;;;;;;;3.60;3.30;;;;;;;;;;5039741;28;20225;-82
2023/06/23 12:53:35;;;;;;;3.10;2.75;;;;;;;;;;5035951;28;20260;-82
2023/06/23 12:56:02;;;;;;;3.13;2.80;;;;;;;;;;5048877;28;20217;-82
2023/06/23 12:58:29;;;;;;;4.13;3.40;;;;;;;;;;5029747;28;20207;-82
2023/06/23 13:00:57;;;;;;;3.40;3.10;;;;;;;;;;5032433;28;20207;-82
2023/06/23 13:03:24;;;;;;;3.50;2.70;;;;;;;;;;5052400;28;20229;-82
2023/06/23 13:05:51;;;;;;;5.00;3.17;;;;;;;;;;5045960;28;20202;-82
2023/06/23 13:08:19;;;;;;;3.17;2.90;;;;;;;;;;5037435;28;20206;-82
2023/06/23 13:10:46;;;;;;;3.50;3.20;;;;;;;;;;5054816;28;20209;-82
2023/06/23 13:13:13;;;;;;;3.60;3.30;;;;;;;;;;5044998;28;20226;-84
2023/06/23 13:15:42;;;;;;;3.60;3.15;;;;;;;;;;5047988;28;20216;-83
2023/06/23 13:18:09;;;;;;;4.38;3.17;;;;;;;;;;5044955;28;20221;-84
2023/06/23 13:20:36;;;;;;;3.90;3.00;;;;;;;;;;5046088;28;20233;-83
2023/06/23 13:23:03;;;;;;;3.75;3.03;;;;;;;;;;5036600;28;20230;-82
2023/06/23 13:25:31;;;;;;;3.40;2.42;;;;;;;;;;5038951;28;20233;-83
2023/06/23 13:27:59;;;;;;;4.10;2.90;;;;;;;;;;5053780;28;20210;-82
2023/06/23 13:30:27;;;;;;;3.30;2.58;;;;;;;;;;5041040;28;20667;-82
2023/06/23 13:32:54;;;;;;;3.08;2.42;;;;;;;;;;5033493;28;20289;-83
2023/06/23 13:35:21;;;;;;;3.20;2.90;;;;;;;;;;5045354;28;20229;-82
2023/06/23 13:37:48;;;;;;;3.30;3.00;;;;;;;;;;5038583;28;20207;-82
2023/06/23 13:40:15;;;;;;;5.03;2.88;;;;;;;;;;5036874;28;20634;-85
2023/06/23 13:42:44;;;;;;;2.60;2.40;;;;;;;;;;5045509;28;20626;-82
2023/06/23 13:45:12;;;;;;;4.25;3.22;;;;;;;;;;5041422;28;20322;-82
2023/06/23 13:47:41;;;;;;;5.78;2.90;;;;;;;;;;5041775;28;20620;-81
2023/06/23 13:50:11;;;;;;;2.85;2.50;;;;;;;;;;5033035;28;20612;-82
2023/06/23 13:52:39;;;;;;;2.70;2.28;;;;;;;;;;5033455;28;20222;-82
2023/06/23 13:55:07;;;;;;;3.25;2.65;;;;;;;;;;5041040;28;20249;-82
2023/06/23 13:57:34;;;;;;;3.00;2.70;;;;;;;;;;5046970;28;20297;-81
2023/06/23 14:00:04;;;;;;;4.25;2.60;;;;;;;;;;5031325;28;20609;-82
2023/06/23 14:02:31;;;;;;;2.90;2.40;;;;;;;;;;5032798;28;20215;-81
2023/06/23 14:04:58;;;;;;;11.02;3.08;;;;;;;;;;5031905;28;20238;-81
2023/06/23 14:07:25;;;;;;;3.47;2.35;;;;;;;;;;5033114;28;20217;-81
2023/06/23 14:09:52;;;;;;;2.60;2.40;;;;;;;;;;5032208;28;20230;-81
2023/06/23 14:12:19;;;;;;;2.53;2.33;;;;;;;;;;5035170;28;20330;-82
2023/06/23 14:14:47;;;;;;;2.50;2.30;;;;;;;;;;5032087;28;20238;-82
2023/06/23 14:17:15;;;;;;;4.22;2.67;;;;;;;;;;5049335;28;20206;-81
2023/06/23 14:19:42;;;;;;;2.70;2.50;;;;;;;;;;5032093;28;20222;-81
2023/06/23 14:22:09;;;;;;;2.90;2.38;;;;;;;;;;5035463;28;20211;-81
2023/06/23 14:24:36;;;;;;;2.63;2.42;;;;;;;;;;5037352;28;20245;-81
2023/06/23 14:27:04;;;;;;;2.58;2.38;;;;;;;;;;5034884;28;20210;-82
2023/06/23 14:29:31;;;;;;;2.95;2.33;;;;;;;;;;5036622;28;20232;-83
2023/06/23 14:31:58;;;;;;;4.78;2.92;;;;;;;;;;5035944;28;20214;-82
2023/06/23 14:34:26;;;;;;;2.45;2.25;;;;;;;;;;5043816;28;20304;-82
2023/06/23 14:36:53;;;;;;;4.95;2.97;;;;;;;;;;5039015;28;20230;-81
2023/06/23 14:39:20;;;;;;;3.05;2.75;;;;;;;;;;5040299;28;20301;-81
2023/06/23 14:41:47;;;;;;;5.22;3.25;;;;;;;;;;5033296;28;20561;-82
2023/06/23 14:44:14;;;;;;;2.78;2.58;;;;;;;;;;5034594;28;20785;-81
2023/06/23 14:46:41;;;;;;;3.47;2.80;;;;;;;;;;5037248;28;20680;-82
2023/06/23 14:49:08;;;;;;;2.88;2.67;;;;;;;;;;5036925;28;20225;-81